sensor_id;sensor_type;location;lat;lon;timestamp;pressure;altitude;pressure_sealevel;temperature;humidity
28626;BME280;18905;42.668;23.364;2023-05-14T00:01:43;95388.84;;;13.87;94.35
28626;BME280;18905;42.668;23.364;2023-05-14T00:04:10;95442.75;;;14.18;94.19
28626;BME280;18905;42.668;23.364;2023-05-14T00:06:38;95476.25;;;14.30;95.44
28626;BME280;18905;42.668;23.364;2023-05-14T00:09:07;95444.09;;;14.32;93.88
28626;BME280;18905;42.668;23.364;2023-05-14T00:11:32;95440.22;;;14.21;93.02
28626;BME280;18905;42.668;23.364;2023-05-14T00:14:00;95420.25;;;14.17;92.83
28626;BME280;18905;42.668;23.364;2023-05-14T00:16:26;95481.06;;;14.66;92.11
28626;BME280;18905;42.668;23.364;2023-05-14T00:18:52;95393.53;;;14.19;91.43
28626;BME280;18905;42.668;23.364;2023-05-14T00:21:19;95520.25;;;14.97;90.76
28626;BME280;18905;42.668;23.364;2023-05-14T00:23:45;95519.16;;;14.98;90.54
28626;BME280;18905;42.668;23.364;2023-05-14T00:26:10;95518.13;;;15.03;89.62
28626;BME280;18905;42.668;23.364;2023-05-14T00:28:39;95430.16;;;14.54;89.30
28626;BME280;18905;42.668;23.364;2023-05-14T00:31:04;95480.06;;;15.03;88.11
28626;BME280;18905;42.668;23.364;2023-05-14T00:33:31;95348.91;;;14.08;88.05
28626;BME280;18905;42.668;23.364;2023-05-14T00:36:01;95439.41;;;14.74;87.52
28626;BME280;18905;42.668;23.364;2023-05-14T00:38:28;95446.97;;;14.68;88.65
28626;BME280;18905;42.668;23.364;2023-05-14T00:40:55;95365.44;;;14.15;89.60
28626;BME280;18905;42.668;23.364;2023-05-14T00:43:23;95495.56;;;15.02;88.41
28626;BME280;18905;42.668;23.364;2023-05-14T00:45:50;95386.63;;;14.42;88.33
28626;BME280;18905;42.668;23.364;2023-05-14T00:48:18;95372.81;;;14.35;88.72
28626;BME280;18905;42.668;23.364;2023-05-14T00:50:44;95421.94;;;14.63;89.80
28626;BME280;18905;42.668;23.364;2023-05-14T00:53:10;95357.50;;;14.31;89.52
28626;BME280;18905;42.668;23.364;2023-05-14T00:55:37;95436.41;;;14.55;90.99
28626;BME280;18905;42.668;23.364;2023-05-14T00:58:08;95482.94;;;14.86;91.80
28626;BME280;18905;42.668;23.364;2023-05-14T01:00:34;95449.41;;;14.49;91.52
28626;BME280;18905;42.668;23.364;2023-05-14T01:03:03;95381.94;;;14.10;91.33
28626;BME280;18905;42.668;23.364;2023-05-14T01:05:40;95394.03;;;14.21;90.48
28626;BME280;18905;42.668;23.364;2023-05-14T01:10:59;95407.09;;;14.19;90.45
28626;BME280;18905;42.668;23.364;2023-05-14T01:13:40;95424.31;;;14.32;90.67
28626;BME280;18905;42.668;23.364;2023-05-14T01:16:11;95397.59;;;14.13;90.20
28626;BME280;18905;42.668;23.364;2023-05-14T01:18:39;95355.94;;;13.89;89.75
28626;BME280;18905;42.668;23.364;2023-05-14T01:21:23;95480.94;;;14.62;89.58
28626;BME280;18905;42.668;23.364;2023-05-14T01:23:50;95350.47;;;13.77;89.74
28626;BME280;18905;42.668;23.364;2023-05-14T01:26:15;95358.72;;;13.80;88.57
28626;BME280;18905;42.668;23.364;2023-05-14T01:28:42;95452.84;;;14.38;88.93
28626;BME280;18905;42.668;23.364;2023-05-14T01:31:17;95363.75;;;13.70;89.09
28626;BME280;18905;42.668;23.364;2023-05-14T01:33:49;95374.28;;;13.71;89.63
28626;BME280;18905;42.668;23.364;2023-05-14T01:36:16;95323.13;;;13.32;89.14
28626;BME280;18905;42.668;23.364;2023-05-14T01:38:42;95446.78;;;14.20;89.84
28626;BME280;18905;42.668;23.364;2023-05-14T01:41:12;95364.25;;;13.43;90.57
28626;BME280;18905;42.668;23.364;2023-05-14T01:43:39;95501.47;;;14.51;90.24
28626;BME280;18905;42.668;23.364;2023-05-14T01:46:06;95407.78;;;13.75;91.19
28626;BME280;18905;42.668;23.364;2023-05-14T01:48:32;95411.41;;;13.59;92.66
28626;BME280;18905;42.668;23.364;2023-05-14T01:50:59;95484.34;;;14.10;92.69
28626;BME280;18905;42.668;23.364;2023-05-14T01:53:27;95455.03;;;13.95;92.21
28626;BME280;18905;42.668;23.364;2023-05-14T01:55:53;95358.88;;;13.34;94.79
28626;BME280;18905;42.668;23.364;2023-05-14T01:58:18;95391.84;;;13.45;94.18
28626;BME280;18905;42.668;23.364;2023-05-14T02:00:44;95368.53;;;13.44;95.16
28626;BME280;18905;42.668;23.364;2023-05-14T02:03:10;95435.25;;;13.94;93.67
28626;BME280;18905;42.668;23.364;2023-05-14T02:05:35;95454.06;;;13.99;96.17
28626;BME280;18905;42.668;23.364;2023-05-14T02:08:03;95398.91;;;13.66;99.99
28626;BME280;18905;42.668;23.364;2023-05-14T02:10:32;95387.25;;;13.66;100.00
28626;BME280;18905;42.668;23.364;2023-05-14T02:12:57;95376.56;;;13.61;100.00
28626;BME280;18905;42.668;23.364;2023-05-14T02:15:23;95388.81;;;13.67;100.00
28626;BME280;18905;42.668;23.364;2023-05-14T02:17:49;95373.25;;;13.55;100.00
28626;BME280;18905;42.668;23.364;2023-05-14T02:20:15;95372.31;;;13.51;100.00
28626;BME280;18905;42.668;23.364;2023-05-14T02:22:42;95444.44;;;13.81;100.00
28626;BME280;18905;42.668;23.364;2023-05-14T02:25:10;95435.44;;;13.69;100.00
28626;BME280;18905;42.668;23.364;2023-05-14T02:27:35;95362.81;;;13.16;100.00
28626;BME280;18905;42.668;23.364;2023-05-14T02:30:12;95524.59;;;14.08;100.00
28626;BME280;18905;42.668;23.364;2023-05-14T02:32:47;95437.09;;;13.53;100.00
28626;BME280;18905;42.668;23.364;2023-05-14T02:35:15;95522.41;;;14.01;100.00
28626;BME280;18905;42.668;23.364;2023-05-14T02:37:47;95475.13;;;13.73;100.00
28626;BME280;18905;42.668;23.364;2023-05-14T02:40:13;95392.16;;;13.14;100.00
28626;BME280;18905;42.668;23.364;2023-05-14T02:42:44;95543.88;;;13.86;100.00
28626;BME280;18905;42.668;23.364;2023-05-14T02:45:11;95424.53;;;13.11;100.00
28626;BME280;18905;42.668;23.364;2023-05-14T02:47:43;95404.19;;;12.88;100.00
28626;BME280;18905;42.668;23.364;2023-05-14T02:50:15;95458.47;;;13.17;100.00
28626;BME280;18905;42.668;23.364;2023-05-14T02:52:41;95447.53;;;13.05;100.00
28626;BME280;18905;42.668;23.364;2023-05-14T02:55:08;95545.56;;;13.70;100.00
28626;BME280;18905;42.668;23.364;2023-05-14T02:57:45;95388.63;;;12.68;100.00
28626;BME280;18905;42.668;23.364;2023-05-14T03:00:26;95547.97;;;13.71;100.00
28626;BME280;18905;42.668;23.364;2023-05-14T03:03:13;95421.94;;;12.60;100.00
28626;BME280;18905;42.668;23.364;2023-05-14T03:05:41;95400.09;;;12.65;100.00
28626;BME280;18905;42.668;23.364;2023-05-14T03:08:11;95484.31;;;13.14;100.00
28626;BME280;18905;42.668;23.364;2023-05-14T03:10:37;95495.34;;;13.18;100.00
28626;BME280;18905;42.668;23.364;2023-05-14T03:13:04;95477.31;;;13.13;100.00
28626;BME280;18905;42.668;23.364;2023-05-14T03:15:31;95391.50;;;12.71;100.00
28626;BME280;18905;42.668;23.364;2023-05-14T03:18:00;95372.38;;;12.68;100.00
28626;BME280;18905;42.668;23.364;2023-05-14T03:20:25;95387.34;;;12.74;100.00
28626;BME280;18905;42.668;23.364;2023-05-14T03:22:51;95379.25;;;12.65;100.00
28626;BME280;18905;42.668;23.364;2023-05-14T03:25:18;95478.22;;;13.26;100.00
28626;BME280;18905;42.668;23.364;2023-05-14T03:27:44;95407.09;;;12.74;100.00
28626;BME280;18905;42.668;23.364;2023-05-14T03:30:10;95500.19;;;13.41;100.00
28626;BME280;18905;42.668;23.364;2023-05-14T03:32:36;95389.38;;;12.85;100.00
28626;BME280;18905;42.668;23.364;2023-05-14T03:35:03;95411.19;;;12.89;100.00
28626;BME280;18905;42.668;23.364;2023-05-14T03:37:30;95401.41;;;12.59;100.00
28626;BME280;18905;42.668;23.364;2023-05-14T03:39:56;95418.16;;;12.52;100.00
28626;BME280;18905;42.668;23.364;2023-05-14T03:42:24;95411.63;;;12.36;100.00
28626;BME280;18905;42.668;23.364;2023-05-14T03:44:50;95540.81;;;13.12;100.00
28626;BME280;18905;42.668;23.364;2023-05-14T03:47:15;95473.44;;;12.51;100.00
28626;BME280;18905;42.668;23.364;2023-05-14T03:49:44;95404.66;;;12.10;100.00
28626;BME280;18905;42.668;23.364;2023-05-14T03:52:11;95458.00;;;12.43;100.00
28626;BME280;18905;42.668;23.364;2023-05-14T03:54:37;95543.03;;;12.85;100.00
28626;BME280;18905;42.668;23.364;2023-05-14T03:57:03;95542.72;;;12.86;100.00
28626;BME280;18905;42.668;23.364;2023-05-14T03:59:29;95544.31;;;12.87;100.00
28626;BME280;18905;42.668;23.364;2023-05-14T04:01:56;95377.75;;;11.79;100.00
28626;BME280;18905;42.668;23.364;2023-05-14T04:04:22;95426.16;;;12.06;100.00
28626;BME280;18905;42.668;23.364;2023-05-14T04:06:48;95542.41;;;12.79;100.00
28626;BME280;18905;42.668;23.364;2023-05-14T04:09:14;95408.63;;;11.95;100.00
28626;BME280;18905;42.668;23.364;2023-05-14T04:11:53;95477.09;;;12.38;100.00
28626;BME280;18905;42.668;23.364;2023-05-14T04:14:19;95480.44;;;12.35;100.00
28626;BME280;18905;42.668;23.364;2023-05-14T04:16:45;95480.28;;;12.23;100.00
28626;BME280;18905;42.668;23.364;2023-05-14T04:19:14;95561.84;;;12.64;100.00
28626;BME280;18905;42.668;23.364;2023-05-14T04:21:43;95481.41;;;12.22;100.00
28626;BME280;18905;42.668;23.364;2023-05-14T04:24:09;95472.94;;;12.32;100.00
28626;BME280;18905;42.668;23.364;2023-05-14T04:26:39;95451.94;;;12.12;100.00
28626;BME280;18905;42.668;23.364;2023-05-14T04:29:05;95418.34;;;11.96;100.00
28626;BME280;18905;42.668;23.364;2023-05-14T04:31:33;95407.03;;;11.86;100.00
28626;BME280;18905;42.668;23.364;2023-05-14T04:34:04;95497.31;;;12.32;100.00
28626;BME280;18905;42.668;23.364;2023-05-14T04:36:34;95570.31;;;12.71;100.00
28626;BME280;18905;42.668;23.364;2023-05-14T04:39:02;95470.72;;;12.09;100.00
28626;BME280;18905;42.668;23.364;2023-05-14T04:41:30;95431.84;;;11.79;100.00
28626;BME280;18905;42.668;23.364;2023-05-14T04:43:58;95487.44;;;12.11;100.00
28626;BME280;18905;42.668;23.364;2023-05-14T04:46:41;95451.09;;;11.86;100.00
28626;BME280;18905;42.668;23.364;2023-05-14T04:49:32;95592.78;;;12.80;100.00
28626;BME280;18905;42.668;23.364;2023-05-14T04:52:00;95504.34;;;12.16;100.00
28626;BME280;18905;42.668;23.364;2023-05-14T04:54:30;95512.63;;;12.28;100.00
28626;BME280;18905;42.668;23.364;2023-05-14T04:56:59;95441.09;;;11.78;100.00
28626;BME280;18905;42.668;23.364;2023-05-14T04:59:31;95466.88;;;11.76;100.00
28626;BME280;18905;42.668;23.364;2023-05-14T05:01:57;95476.13;;;11.83;100.00
28626;BME280;18905;42.668;23.364;2023-05-14T05:04:23;95536.97;;;12.11;100.00
28626;BME280;18905;42.668;23.364;2023-05-14T05:06:51;95610.13;;;12.37;100.00
28626;BME280;18905;42.668;23.364;2023-05-14T05:09:19;95500.97;;;11.54;100.00
28626;BME280;18905;42.668;23.364;2023-05-14T05:11:46;95575.31;;;11.96;100.00
28626;BME280;18905;42.668;23.364;2023-05-14T05:14:14;95599.38;;;12.06;100.00
28626;BME280;18905;42.668;23.364;2023-05-14T05:16:40;95579.56;;;11.49;100.00
28626;BME280;18905;42.668;23.364;2023-05-14T05:19:09;95562.03;;;11.47;100.00
28626;BME280;18905;42.668;23.364;2023-05-14T05:21:34;95512.72;;;11.11;100.00
28626;BME280;18905;42.668;23.364;2023-05-14T05:24:00;95514.91;;;11.09;100.00
28626;BME280;18905;42.668;23.364;2023-05-14T05:26:26;95553.97;;;11.25;100.00
28626;BME280;18905;42.668;23.364;2023-05-14T05:28:52;95590.53;;;11.53;100.00
28626;BME280;18905;42.668;23.364;2023-05-14T05:31:17;95515.63;;;10.92;100.00
28626;BME280;18905;42.668;23.364;2023-05-14T05:33:46;95615.38;;;11.55;100.00
28626;BME280;18905;42.668;23.364;2023-05-14T05:36:11;95669.94;;;12.18;100.00
28626;BME280;18905;42.668;23.364;2023-05-14T05:38:38;95660.50;;;11.99;100.00
28626;BME280;18905;42.668;23.364;2023-05-14T05:41:04;95657.72;;;11.90;100.00
28626;BME280;18905;42.668;23.364;2023-05-14T05:43:29;95610.41;;;11.48;100.00
28626;BME280;18905;42.668;23.364;2023-05-14T05:45:55;95686.34;;;11.82;100.00
28626;BME280;18905;42.668;23.364;2023-05-14T05:48:20;95685.19;;;11.75;100.00
28626;BME280;18905;42.668;23.364;2023-05-14T05:50:46;95685.94;;;11.67;100.00
28626;BME280;18905;42.668;23.364;2023-05-14T05:53:13;95667.69;;;11.50;100.00
28626;BME280;18905;42.668;23.364;2023-05-14T05:55:40;95690.19;;;11.59;100.00
28626;BME280;18905;42.668;23.364;2023-05-14T05:58:06;95594.66;;;10.76;100.00
28626;BME280;18905;42.668;23.364;2023-05-14T06:00:31;95692.28;;;11.40;100.00
28626;BME280;18905;42.668;23.364;2023-05-14T06:02:57;95602.22;;;10.87;100.00
28626;BME280;18905;42.668;23.364;2023-05-14T06:05:23;95630.22;;;11.13;100.00
28626;BME280;18905;42.668;23.364;2023-05-14T06:07:48;95581.78;;;10.73;100.00
28626;BME280;18905;42.668;23.364;2023-05-14T06:10:14;95619.28;;;10.96;100.00
28626;BME280;18905;42.668;23.364;2023-05-14T06:12:39;95597.78;;;10.69;100.00
28626;BME280;18905;42.668;23.364;2023-05-14T06:15:05;95674.03;;;11.24;100.00
28626;BME280;18905;42.668;23.364;2023-05-14T06:17:31;95634.47;;;11.06;100.00
28626;BME280;18905;42.668;23.364;2023-05-14T06:19:56;95671.25;;;11.37;100.00
28626;BME280;18905;42.668;23.364;2023-05-14T06:22:22;95683.88;;;11.95;100.00
28626;BME280;18905;42.668;23.364;2023-05-14T06:24:47;95673.81;;;13.33;100.00
28626;BME280;18905;42.668;23.364;2023-05-14T06:27:13;95676.38;;;14.01;100.00
28626;BME280;18905;42.668;23.364;2023-05-14T06:29:39;95621.31;;;13.46;100.00
28626;BME280;18905;42.668;23.364;2023-05-14T06:32:05;95633.13;;;12.90;100.00
28626;BME280;18905;42.668;23.364;2023-05-14T06:34:30;95675.34;;;12.91;100.00
28626;BME280;18905;42.668;23.364;2023-05-14T06:36:58;95634.34;;;12.33;100.00
28626;BME280;18905;42.668;23.364;2023-05-14T06:39:26;95576.22;;;11.83;100.00
28626;BME280;18905;42.668;23.364;2023-05-14T06:41:52;95664.72;;;12.30;100.00
28626;BME280;18905;42.668;23.364;2023-05-14T06:44:18;95610.00;;;11.94;100.00
28626;BME280;18905;42.668;23.364;2023-05-14T06:46:43;95676.81;;;12.24;100.00
28626;BME280;18905;42.668;23.364;2023-05-14T06:49:09;95596.84;;;11.70;100.00
28626;BME280;18905;42.668;23.364;2023-05-14T06:51:34;95599.53;;;11.70;100.00
28626;BME280;18905;42.668;23.364;2023-05-14T06:54:00;95563.94;;;11.46;100.00
28626;BME280;18905;42.668;23.364;2023-05-14T06:56:25;95652.81;;;11.92;100.00
28626;BME280;18905;42.668;23.364;2023-05-14T06:58:50;95574.06;;;11.41;100.00
28626;BME280;18905;42.668;23.364;2023-05-14T07:01:16;95634.50;;;11.89;100.00
28626;BME280;18905;42.668;23.364;2023-05-14T07:03:41;95634.50;;;11.98;100.00
28626;BME280;18905;42.668;23.364;2023-05-14T07:06:07;95657.69;;;12.21;100.00
28626;BME280;18905;42.668;23.364;2023-05-14T07:08:33;95524.13;;;11.38;100.00
28626;BME280;18905;42.668;23.364;2023-05-14T07:11:00;95514.72;;;11.36;100.00
28626;BME280;18905;42.668;23.364;2023-05-14T07:13:30;95521.00;;;11.14;100.00
28626;BME280;18905;42.668;23.364;2023-05-14T07:15:55;95492.84;;;10.85;100.00
28626;BME280;18905;42.668;23.364;2023-05-14T07:18:27;95676.06;;;11.93;100.00
28626;BME280;18905;42.668;23.364;2023-05-14T07:20:54;95583.41;;;11.04;100.00
28626;BME280;18905;42.668;23.364;2023-05-14T07:23:19;95709.41;;;11.58;100.00
28626;BME280;18905;42.668;23.364;2023-05-14T07:25:45;95603.00;;;10.88;100.00
28626;BME280;18905;42.668;23.364;2023-05-14T07:28:12;95575.75;;;10.76;100.00
28626;BME280;18905;42.668;23.364;2023-05-14T07:30:38;95602.09;;;10.70;100.00
28626;BME280;18905;42.668;23.364;2023-05-14T07:33:04;95562.41;;;10.35;100.00
28626;BME280;18905;42.668;23.364;2023-05-14T07:35:29;95588.56;;;10.35;100.00
28626;BME280;18905;42.668;23.364;2023-05-14T07:37:55;95593.88;;;10.40;100.00
28626;BME280;18905;42.668;23.364;2023-05-14T07:40:20;95540.34;;;10.20;100.00
28626;BME280;18905;42.668;23.364;2023-05-14T07:42:46;95638.69;;;10.76;100.00
28626;BME280;18905;42.668;23.364;2023-05-14T07:45:14;95691.56;;;11.13;100.00
28626;BME280;18905;42.668;23.364;2023-05-14T07:47:46;95647.47;;;10.82;100.00
28626;BME280;18905;42.668;23.364;2023-05-14T07:50:11;95590.22;;;10.58;100.00
28626;BME280;18905;42.668;23.364;2023-05-14T07:52:36;95614.19;;;10.73;100.00
28626;BME280;18905;42.668;23.364;2023-05-14T07:55:02;95544.47;;;10.04;100.00
28626;BME280;18905;42.668;23.364;2023-05-14T07:57:28;95667.63;;;10.98;100.00
28626;BME280;18905;42.668;23.364;2023-05-14T07:59:53;95637.16;;;10.84;100.00
28626;BME280;18905;42.668;23.364;2023-05-14T08:02:19;95716.47;;;11.23;100.00
28626;BME280;18905;42.668;23.364;2023-05-14T08:04:44;95687.59;;;10.88;100.00
28626;BME280;18905;42.668;23.364;2023-05-14T08:07:12;95650.38;;;10.72;100.00
28626;BME280;18905;42.668;23.364;2023-05-14T08:09:48;95543.34;;;10.18;100.00
28626;BME280;18905;42.668;23.364;2023-05-14T08:12:13;95648.03;;;10.57;100.00
28626;BME280;18905;42.668;23.364;2023-05-14T08:14:40;95694.75;;;10.93;100.00
28626;BME280;18905;42.668;23.364;2023-05-14T08:17:05;95625.13;;;10.54;100.00
28626;BME280;18905;42.668;23.364;2023-05-14T08:19:32;95601.72;;;10.63;100.00
28626;BME280;18905;42.668;23.364;2023-05-14T08:21:58;95641.28;;;11.03;100.00
28626;BME280;18905;42.668;23.364;2023-05-14T08:24:23;95679.06;;;11.17;100.00
28626;BME280;18905;42.668;23.364;2023-05-14T08:26:48;95695.09;;;12.75;100.00
28626;BME280;18905;42.668;23.364;2023-05-14T08:29:14;95691.00;;;13.79;100.00
28626;BME280;18905;42.668;23.364;2023-05-14T08:31:39;95676.25;;;14.43;100.00
28626;BME280;18905;42.668;23.364;2023-05-14T08:34:05;95636.81;;;14.58;100.00
28626;BME280;18905;42.668;23.364;2023-05-14T08:36:30;95663.44;;;13.98;100.00
28626;BME280;18905;42.668;23.364;2023-05-14T08:38:57;95655.13;;;13.40;100.00
28626;BME280;18905;42.668;23.364;2023-05-14T08:41:22;95651.47;;;13.10;100.00
28626;BME280;18905;42.668;23.364;2023-05-14T08:46:35;95654.06;;;12.25;100.00
28626;BME280;18905;42.668;23.364;2023-05-14T08:51:35;95622.47;;;11.73;100.00
28626;BME280;18905;42.668;23.364;2023-05-14T08:54:01;95663.16;;;12.29;100.00
28626;BME280;18905;42.668;23.364;2023-05-14T08:56:29;95561.56;;;11.84;100.00
28626;BME280;18905;42.668;23.364;2023-05-14T08:58:56;95552.97;;;11.82;100.00
28626;BME280;18905;42.668;23.364;2023-05-14T09:01:21;95562.47;;;11.63;100.00
28626;BME280;18905;42.668;23.364;2023-05-14T09:03:48;95588.81;;;11.57;100.00
28626;BME280;18905;42.668;23.364;2023-05-14T09:06:14;95639.88;;;11.81;100.00
28626;BME280;18905;42.668;23.364;2023-05-14T09:08:41;95633.75;;;11.67;100.00
28626;BME280;18905;42.668;23.364;2023-05-14T09:11:06;95600.31;;;11.32;100.00
28626;BME280;18905;42.668;23.364;2023-05-14T09:13:32;95623.38;;;11.38;100.00
28626;BME280;18905;42.668;23.364;2023-05-14T09:15:57;95583.59;;;11.08;100.00
28626;BME280;18905;42.668;23.364;2023-05-14T09:18:24;95532.25;;;11.08;100.00
28626;BME280;18905;42.668;23.364;2023-05-14T09:20:49;95565.72;;;11.20;100.00
28626;BME280;18905;42.668;23.364;2023-05-14T09:23:16;95556.81;;;11.20;100.00
28626;BME280;18905;42.668;23.364;2023-05-14T09:25:41;95656.13;;;11.89;100.00
28626;BME280;18905;42.668;23.364;2023-05-14T09:28:08;95585.38;;;11.34;100.00
28626;BME280;18905;42.668;23.364;2023-05-14T09:30:33;95572.91;;;11.25;100.00
28626;BME280;18905;42.668;23.364;2023-05-14T09:33:01;95530.78;;;11.02;100.00
28626;BME280;18905;42.668;23.364;2023-05-14T09:35:28;95630.81;;;11.85;100.00
28626;BME280;18905;42.668;23.364;2023-05-14T09:37:54;95638.31;;;11.88;100.00
28626;BME280;18905;42.668;23.364;2023-05-14T09:40:22;95570.72;;;11.35;100.00
28626;BME280;18905;42.668;23.364;2023-05-14T09:42:48;95577.13;;;11.39;100.00
28626;BME280;18905;42.668;23.364;2023-05-14T09:45:14;95554.09;;;11.20;100.00
28626;BME280;18905;42.668;23.364;2023-05-14T09:47:40;95535.31;;;11.15;100.00
28626;BME280;18905;42.668;23.364;2023-05-14T09:50:07;95589.56;;;11.49;100.00
28626;BME280;18905;42.668;23.364;2023-05-14T09:52:33;95601.50;;;11.26;100.00
28626;BME280;18905;42.668;23.364;2023-05-14T09:54:59;95516.59;;;10.96;100.00
28626;BME280;18905;42.668;23.364;2023-05-14T09:57:25;95530.06;;;10.88;100.00
28626;BME280;18905;42.668;23.364;2023-05-14T09:59:52;95542.63;;;11.14;100.00
28626;BME280;18905;42.668;23.364;2023-05-14T10:02:22;95623.44;;;11.77;100.00
28626;BME280;18905;42.668;23.364;2023-05-14T10:04:49;95570.28;;;11.64;100.00
28626;BME280;18905;42.668;23.364;2023-05-14T10:07:20;95555.88;;;11.24;100.00
28626;BME280;18905;42.668;23.364;2023-05-14T10:09:46;95606.34;;;11.59;100.00
28626;BME280;18905;42.668;23.364;2023-05-14T10:12:14;95528.19;;;11.19;100.00
28626;BME280;18905;42.668;23.364;2023-05-14T10:14:45;95499.34;;;11.06;100.00
28626;BME280;18905;42.668;23.364;2023-05-14T10:17:11;95601.59;;;11.65;100.00
28626;BME280;18905;42.668;23.364;2023-05-14T10:19:47;95593.09;;;11.58;100.00
28626;BME280;18905;42.668;23.364;2023-05-14T10:22:17;95582.69;;;11.73;100.00
28626;BME280;18905;42.668;23.364;2023-05-14T10:24:44;95574.00;;;11.54;100.00
28626;BME280;18905;42.668;23.364;2023-05-14T10:27:11;95514.81;;;11.14;100.00
28626;BME280;18905;42.668;23.364;2023-05-14T10:29:37;95558.34;;;11.43;100.00
28626;BME280;18905;42.668;23.364;2023-05-14T10:32:07;95602.91;;;11.76;100.00
28626;BME280;18905;42.668;23.364;2023-05-14T10:37:07;95488.59;;;10.92;100.00
28626;BME280;18905;42.668;23.364;2023-05-14T10:39:49;95462.56;;;10.66;100.00
28626;BME280;18905;42.668;23.364;2023-05-14T10:42:20;95471.72;;;10.56;100.00
28626;BME280;18905;42.668;23.364;2023-05-14T10:47:15;95567.88;;;11.10;100.00
28626;BME280;18905;42.668;23.364;2023-05-14T10:49:42;95581.94;;;11.20;100.00
28626;BME280;18905;42.668;23.364;2023-05-14T10:52:10;95569.47;;;11.11;100.00
28626;BME280;18905;42.668;23.364;2023-05-14T10:54:36;95599.41;;;11.45;100.00
28626;BME280;18905;42.668;23.364;2023-05-14T10:57:02;95587.00;;;11.44;100.00
28626;BME280;18905;42.668;23.364;2023-05-14T10:59:27;95583.88;;;11.28;100.00
28626;BME280;18905;42.668;23.364;2023-05-14T11:01:55;95554.81;;;11.03;100.00
28626;BME280;18905;42.668;23.364;2023-05-14T11:04:23;95529.09;;;10.84;100.00
28626;BME280;18905;42.668;23.364;2023-05-14T11:06:50;95570.47;;;11.15;100.00
28626;BME280;18905;42.668;23.364;2023-05-14T11:09:19;95560.50;;;11.24;100.00
28626;BME280;18905;42.668;23.364;2023-05-14T11:11:45;95589.81;;;11.39;100.00
28626;BME280;18905;42.668;23.364;2023-05-14T11:14:12;95483.31;;;10.79;100.00
28626;BME280;18905;42.668;23.364;2023-05-14T11:16:37;95548.19;;;11.18;100.00
28626;BME280;18905;42.668;23.364;2023-05-14T11:19:04;95566.06;;;11.27;100.00
28626;BME280;18905;42.668;23.364;2023-05-14T11:21:30;95594.19;;;11.48;100.00
28626;BME280;18905;42.668;23.364;2023-05-14T11:23:58;95596.44;;;11.55;100.00
28626;BME280;18905;42.668;23.364;2023-05-14T11:26:23;95518.03;;;10.94;100.00
28626;BME280;18905;42.668;23.364;2023-05-14T11:28:49;95582.75;;;11.29;100.00
28626;BME280;18905;42.668;23.364;2023-05-14T11:31:14;95507.66;;;10.87;100.00
28626;BME280;18905;42.668;23.364;2023-05-14T11:33:40;95539.03;;;11.27;100.00
28626;BME280;18905;42.668;23.364;2023-05-14T11:36:06;95499.50;;;11.09;100.00
28626;BME280;18905;42.668;23.364;2023-05-14T11:38:32;95486.75;;;11.01;100.00
28626;BME280;18905;42.668;23.364;2023-05-14T11:40:58;95548.78;;;11.37;100.00
28626;BME280;18905;42.668;23.364;2023-05-14T11:43:24;95561.53;;;11.45;100.00
28626;BME280;18905;42.668;23.364;2023-05-14T11:45:53;95550.91;;;11.48;100.00
28626;BME280;18905;42.668;23.364;2023-05-14T11:48:20;95506.44;;;11.24;100.00
28626;BME280;18905;42.668;23.364;2023-05-14T11:50:51;95491.34;;;11.31;100.00
28626;BME280;18905;42.668;23.364;2023-05-14T11:53:18;95481.34;;;11.32;100.00
28626;BME280;18905;42.668;23.364;2023-05-14T11:55:45;95543.63;;;11.57;100.00
28626;BME280;18905;42.668;23.364;2023-05-14T11:58:11;95435.84;;;10.95;100.00
28626;BME280;18905;42.668;23.364;2023-05-14T12:00:37;95532.44;;;11.81;100.00
28626;BME280;18905;42.668;23.364;2023-05-14T12:03:02;95490.50;;;11.61;100.00
28626;BME280;18905;42.668;23.364;2023-05-14T12:05:28;95521.03;;;12.01;100.00
28626;BME280;18905;42.668;23.364;2023-05-14T12:07:53;95516.56;;;12.05;100.00
28626;BME280;18905;42.668;23.364;2023-05-14T12:10:20;95461.69;;;11.57;100.00
28626;BME280;18905;42.668;23.364;2023-05-14T12:12:46;95531.59;;;12.28;100.00
28626;BME280;18905;42.668;23.364;2023-05-14T12:15:12;95520.75;;;12.28;100.00
28626;BME280;18905;42.668;23.364;2023-05-14T12:17:38;95442.38;;;12.06;100.00
28626;BME280;18905;42.668;23.364;2023-05-14T12:20:07;95526.63;;;12.64;100.00
28626;BME280;18905;42.668;23.364;2023-05-14T12:22:34;95497.81;;;12.34;100.00
28626;BME280;18905;42.668;23.364;2023-05-14T12:25:00;95471.84;;;12.16;100.00
28626;BME280;18905;42.668;23.364;2023-05-14T12:27:26;95508.16;;;12.49;100.00
28626;BME280;18905;42.668;23.364;2023-05-14T12:30:02;95480.78;;;12.17;100.00
28626;BME280;18905;42.668;23.364;2023-05-14T12:32:34;95494.78;;;12.19;100.00
28626;BME280;18905;42.668;23.364;2023-05-14T12:35:00;95449.38;;;12.07;100.00
28626;BME280;18905;42.668;23.364;2023-05-14T12:37:26;95466.56;;;11.94;100.00
28626;BME280;18905;42.668;23.364;2023-05-14T12:39:51;95478.66;;;12.05;100.00
28626;BME280;18905;42.668;23.364;2023-05-14T12:42:17;95471.34;;;12.14;100.00
28626;BME280;18905;42.668;23.364;2023-05-14T12:44:42;95486.66;;;12.44;100.00
28626;BME280;18905;42.668;23.364;2023-05-14T12:47:08;95454.94;;;12.53;100.00
28626;BME280;18905;42.668;23.364;2023-05-14T12:49:33;95476.94;;;12.52;100.00
28626;BME280;18905;42.668;23.364;2023-05-14T12:51:59;95497.19;;;12.46;100.00
28626;BME280;18905;42.668;23.364;2023-05-14T12:54:24;95409.28;;;11.92;100.00